createdAt,value
2022-12-23T00:01:23.893Z,97.85
2022-12-23T00:03:54.194Z,99.72
2022-12-23T00:06:22.284Z,97.97
2022-12-23T00:08:50.288Z,102.68
2022-12-23T00:11:21.414Z,104.00
2022-12-23T00:14:06.924Z,100.38
2022-12-23T00:16:36.967Z,102.80
2022-12-23T00:19:06.631Z,109.47
2022-12-23T00:21:36.061Z,105.18
2022-12-23T00:24:04.163Z,104.38
2022-12-23T00:26:32.122Z,101.47
2022-12-23T00:29:00.565Z,85.53
2022-12-23T00:31:28.575Z,84.35
2022-12-23T00:33:56.592Z,83.05
2022-12-23T00:36:28.397Z,79.75
2022-12-23T00:39:14.683Z,77.97
2022-12-23T00:42:00.483Z,76.10
2022-12-23T00:44:28.617Z,69.68
2022-12-23T00:46:56.676Z,70.03
2022-12-23T00:49:42.208Z,71.22
2022-12-23T00:52:15.648Z,71.90
2022-12-23T00:54:43.803Z,70.63
2022-12-23T00:57:12.036Z,72.32
2022-12-23T00:59:40.014Z,71.43
2022-12-23T01:02:25.318Z,70.18
2022-12-23T01:05:10.758Z,75.22
2022-12-23T01:07:40.111Z,76.75
2022-12-23T01:10:09.691Z,74.95
2022-12-23T01:12:37.735Z,77.50
2022-12-23T01:15:06.535Z,81.07
2022-12-23T01:17:34.491Z,84.05
2022-12-23T01:20:02.402Z,86.72
2022-12-23T01:22:30.576Z,87.18
2022-12-23T01:24:59.899Z,85.75
2022-12-23T01:27:27.955Z,88.53
2022-12-23T01:29:55.909Z,92.22
2022-12-23T01:32:23.894Z,96.30
2022-12-23T01:34:51.761Z,94.32
2022-12-23T01:37:19.769Z,98.13
2022-12-23T01:39:47.757Z,98.93
2022-12-23T01:42:37.325Z,100.35
2022-12-23T01:45:07.778Z,101.47
2022-12-23T01:47:40.198Z,102.07
2022-12-23T01:50:12.536Z,105.05
2022-12-23T01:52:46.777Z,104.25
2022-12-23T01:55:17.584Z,102.50
2022-12-23T01:57:48.440Z,105.07
2022-12-23T02:00:34.655Z,103.28
2022-12-23T02:03:19.937Z,103.88
2022-12-23T02:05:49.336Z,107.25
2022-12-23T02:08:35.705Z,105.22
2022-12-23T02:11:32.293Z,103.82
2022-12-23T02:14:31.917Z,102.97
2022-12-23T02:17:08.907Z,98.75
2022-12-23T02:20:05.141Z,106.53
2022-12-23T02:22:53.466Z,103.10
2022-12-23T02:25:51.371Z,99.10
2022-12-23T02:28:53.175Z,100.13
2022-12-23T02:31:30.454Z,98.07
2022-12-23T02:34:03.611Z,103.15
2022-12-23T02:36:40.068Z,99.13
2022-12-23T02:39:11.875Z,97.70
2022-12-23T02:41:49.129Z,95.97
2022-12-23T02:44:25.535Z,90.95
2022-12-23T02:47:00.494Z,92.85
2022-12-23T02:49:34.913Z,94.15
2022-12-23T02:52:06.635Z,92.70
2022-12-23T02:54:39.917Z,94.32
2022-12-23T02:57:11.340Z,90.35
2022-12-23T02:59:45.099Z,93.85
2022-12-23T03:02:14.643Z,91.45
2022-12-23T03:04:43.155Z,86.03
2022-12-23T03:07:19.095Z,87.63
2022-12-23T03:09:59.182Z,88.97
2022-12-23T03:12:36.780Z,88.53
2022-12-23T03:15:18.695Z,87.13
2022-12-23T03:18:00.017Z,83.18
2022-12-23T03:20:34.546Z,83.40
2022-12-23T03:23:09.059Z,83.53
2022-12-23T03:25:41.880Z,84.05
2022-12-23T03:28:14.651Z,87.07
2022-12-23T03:30:45.589Z,88.53
2022-12-23T03:33:17.708Z,87.63
2022-12-23T03:35:52.160Z,87.68
2022-12-23T03:38:22.149Z,88.47
2022-12-23T03:40:55.577Z,89.40
2022-12-23T03:43:28.384Z,89.10
2022-12-23T03:46:01.947Z,87.57
2022-12-23T03:48:36.898Z,86.43
2022-12-23T03:51:10.657Z,93.22
2022-12-23T03:53:43.049Z,85.50
2022-12-23T03:56:18.028Z,89.75
2022-12-23T03:58:54.050Z,82.82
2022-12-23T04:01:28.563Z,82.05
2022-12-23T04:04:04.919Z,84.10
2022-12-23T04:06:40.340Z,92.82
2022-12-23T04:09:10.152Z,91.07
2022-12-23T04:11:38.496Z,90.13
2022-12-23T04:14:08.034Z,85.25
2022-12-23T04:16:36.325Z,87.03
2022-12-23T04:19:05.681Z,76.45
2022-12-23T04:21:33.648Z,78.05
2022-12-23T04:24:01.655Z,82.60
2022-12-23T04:26:29.662Z,83.47
2022-12-23T04:28:57.564Z,83.78
2022-12-23T04:31:25.612Z,85.85
2022-12-23T04:33:53.522Z,83.47
2022-12-23T04:36:22.823Z,88.13
2022-12-23T04:38:50.858Z,87.38
2022-12-23T04:41:18.815Z,84.13
2022-12-23T04:43:52.765Z,83.32
2022-12-23T04:46:21.404Z,80.10
2022-12-23T04:48:49.397Z,80.40
2022-12-23T04:51:17.411Z,82.47
2022-12-23T04:53:46.722Z,80.13
2022-12-23T04:56:14.649Z,77.72
2022-12-23T04:58:42.594Z,76.57
2022-12-23T05:01:12.869Z,76.05
2022-12-23T05:03:41.396Z,76.72
2022-12-23T05:06:09.678Z,75.63
2022-12-23T05:08:37.951Z,71.97
2022-12-23T05:11:07.548Z,69.80
2022-12-23T05:13:35.684Z,67.03
2022-12-23T05:16:03.773Z,62.67
2022-12-23T05:18:31.788Z,60.42
2022-12-23T05:21:00.214Z,56.38
2022-12-23T05:23:28.440Z,55.97
2022-12-23T05:25:56.441Z,57.65
2022-12-23T05:28:25.802Z,57.42
2022-12-23T05:30:59.646Z,61.47
2022-12-23T05:33:27.693Z,62.83
2022-12-23T05:35:55.900Z,62.17
2022-12-23T05:38:24.245Z,63.63
2022-12-23T05:40:52.643Z,63.27
2022-12-23T05:43:20.712Z,63.00
2022-12-23T05:45:50.867Z,64.28
2022-12-23T05:48:18.936Z,62.78
2022-12-23T05:50:46.889Z,64.80
2022-12-23T05:53:14.951Z,65.88
2022-12-23T05:55:42.901Z,65.32
2022-12-23T05:58:11.077Z,64.47
2022-12-23T06:00:39.124Z,63.78
2022-12-23T06:03:08.870Z,66.32
2022-12-23T06:05:38.915Z,66.60
2022-12-23T06:08:07.273Z,69.03
2022-12-23T06:10:35.649Z,65.93
2022-12-23T06:13:03.683Z,63.67
2022-12-23T06:15:31.749Z,71.68
2022-12-23T06:17:59.965Z,71.78
2022-12-23T06:20:29.493Z,70.80
2022-12-23T06:22:57.499Z,75.10
2022-12-23T06:25:25.473Z,75.85
2022-12-23T06:27:53.464Z,77.18
2022-12-23T06:30:21.637Z,78.22
2022-12-23T06:32:49.608Z,79.97
2022-12-23T06:35:17.760Z,77.97
2022-12-23T06:37:47.230Z,82.17
2022-12-23T06:40:15.509Z,80.43
2022-12-23T06:42:43.469Z,83.73
2022-12-23T06:45:12.257Z,78.13
2022-12-23T06:47:40.270Z,77.18
2022-12-23T06:50:10.074Z,69.13
2022-12-23T06:52:38.181Z,73.20
2022-12-23T06:55:08.421Z,75.93
2022-12-23T06:57:36.473Z,92.50
2022-12-23T07:00:05.323Z,109.10
2022-12-23T07:02:33.407Z,111.25
2022-12-23T07:05:01.496Z,109.63
2022-12-23T07:07:29.460Z,109.13
2022-12-23T07:09:57.453Z,104.88
2022-12-23T07:12:26.832Z,113.10
2022-12-23T07:14:54.749Z,107.53
2022-12-23T07:17:23.016Z,90.55
2022-12-23T07:19:51.039Z,87.60
2022-12-23T07:22:19.017Z,95.90
2022-12-23T07:24:47.040Z,99.50
2022-12-23T07:27:14.984Z,100.20
2022-12-23T07:29:44.342Z,99.85
2022-12-23T07:32:12.444Z,100.18
2022-12-23T07:34:40.441Z,101.13
2022-12-23T07:37:08.408Z,95.47
2022-12-23T07:39:36.645Z,93.43
2022-12-23T07:42:33.829Z,97.03
2022-12-23T07:44:54.048Z,93.53
2022-12-23T07:47:23.500Z,67.78
2022-12-23T07:49:51.448Z,70.15
2022-12-23T07:52:19.558Z,79.78
2022-12-23T07:54:47.557Z,73.40
2022-12-23T07:57:15.574Z,76.18
2022-12-23T07:59:43.574Z,62.97
2022-12-23T08:06:03.291Z,60.58
2022-12-23T08:08:31.957Z,62.17
2022-12-23T08:11:00.810Z,52.78
2022-12-23T08:13:29.396Z,57.75
2022-12-23T08:15:57.869Z,58.67
2022-12-23T08:18:26.478Z,59.85
2022-12-23T08:20:55.836Z,56.60
2022-12-23T08:23:26.781Z,58.55
2022-12-23T08:26:03.715Z,61.15
2022-12-23T08:28:32.748Z,54.20
2022-12-23T08:31:08.947Z,52.90
2022-12-23T08:33:39.274Z,51.92
2022-12-23T08:36:09.601Z,50.05
2022-12-23T08:38:39.262Z,50.58
2022-12-23T08:41:10.418Z,51.63
2022-12-23T08:43:38.750Z,52.08
2022-12-23T08:46:07.613Z,53.25
2022-12-23T08:48:36.350Z,54.40
2022-12-23T08:51:06.035Z,52.50
2022-12-23T08:53:35.066Z,50.80
2022-12-23T08:58:33.460Z,44.70
2022-12-23T09:01:05.297Z,39.97
2022-12-23T09:03:34.390Z,39.50
2022-12-23T09:06:05.894Z,41.55
2022-12-23T09:08:34.131Z,36.30
2022-12-23T09:11:02.690Z,33.63
2022-12-23T09:13:35.507Z,31.92
2022-12-23T09:16:04.203Z,32.58
2022-12-23T09:18:32.575Z,29.67
2022-12-23T09:21:01.189Z,27.60
2022-12-23T09:23:29.898Z,26.77
2022-12-23T09:25:58.550Z,24.50
2022-12-23T09:28:27.149Z,26.08
2022-12-23T09:30:56.510Z,27.40
2022-12-23T09:33:24.566Z,26.75
2022-12-23T09:35:52.553Z,28.37
2022-12-23T09:38:20.534Z,28.70
2022-12-23T09:40:48.689Z,27.10
2022-12-23T09:43:27.332Z,26.20
2022-12-23T09:46:07.567Z,25.65
2022-12-23T09:48:42.741Z,28.73
2022-12-23T09:51:13.255Z,29.30
2022-12-23T09:53:50.810Z,28.73
2022-12-23T09:56:26.394Z,29.35
2022-12-23T09:59:04.458Z,30.33
2022-12-23T10:01:44.845Z,29.83
2022-12-23T10:04:33.786Z,29.50
2022-12-23T10:07:27.697Z,27.60
2022-12-23T10:09:57.710Z,27.30
2022-12-23T10:12:39.783Z,26.08
2022-12-23T10:15:22.154Z,26.90
2022-12-23T10:17:55.802Z,28.33
2022-12-23T10:20:34.343Z,24.65
2022-12-23T10:23:02.350Z,24.58
2022-12-23T10:25:36.401Z,25.70
2022-12-23T10:28:04.565Z,24.40
2022-12-23T10:30:57.385Z,22.35
2022-12-23T10:33:29.208Z,24.58
2022-12-23T10:36:06.349Z,21.25
2022-12-23T10:38:44.053Z,24.15
2022-12-23T10:41:22.254Z,24.80
2022-12-23T10:44:14.209Z,21.63
2022-12-23T10:46:50.556Z,21.90
2022-12-23T10:49:30.610Z,21.80
2022-12-23T10:52:03.018Z,21.67
2022-12-23T10:57:28.301Z,22.10
2022-12-23T10:59:56.336Z,22.38
2022-12-23T11:02:38.749Z,22.60
2022-12-23T11:05:16.638Z,21.90
2022-12-23T11:07:46.687Z,23.13
2022-12-23T11:10:19.540Z,22.77
2022-12-23T11:12:49.196Z,21.85
2022-12-23T11:15:30.500Z,22.73
2022-12-23T11:18:03.790Z,23.60
2022-12-23T11:20:34.518Z,23.02
2022-12-23T11:23:04.373Z,23.23
2022-12-23T11:25:36.704Z,23.90
2022-12-23T11:28:09.456Z,21.58
2022-12-23T11:30:40.438Z,21.50
2022-12-23T11:33:22.660Z,18.05
2022-12-23T11:36:01.887Z,19.83
2022-12-23T11:38:30.166Z,20.25
2022-12-23T11:40:58.585Z,18.63
2022-12-23T11:43:28.462Z,18.35
2022-12-23T11:46:17.304Z,19.45
2022-12-23T11:48:50.064Z,19.58
2022-12-23T11:51:27.956Z,17.98
2022-12-23T11:54:01.558Z,18.13
2022-12-23T11:56:36.115Z,17.83
2022-12-23T11:59:07.651Z,16.80
2022-12-23T12:01:39.344Z,17.60
2022-12-23T12:04:10.595Z,13.35
2022-12-23T12:06:52.682Z,13.95
2022-12-23T12:09:25.210Z,14.93
2022-12-23T12:11:56.159Z,14.60
2022-12-23T12:14:32.159Z,12.35
2022-12-23T12:17:07.441Z,12.23
2022-12-23T12:19:39.742Z,12.20
2022-12-23T12:22:16.807Z,11.60
2022-12-23T12:24:50.435Z,12.32
2022-12-23T12:27:20.999Z,11.95
2022-12-23T12:29:53.617Z,12.52
2022-12-23T12:32:29.161Z,10.60
2022-12-23T12:35:01.939Z,10.70
2022-12-23T12:37:39.207Z,9.98
2022-12-23T12:40:19.252Z,9.75
2022-12-23T12:42:53.259Z,9.93
2022-12-23T12:45:24.738Z,9.95
2022-12-23T12:48:17.805Z,9.30
2022-12-23T12:50:55.637Z,6.43
2022-12-23T12:53:25.108Z,7.43
2022-12-23T12:55:59.197Z,8.35
2022-12-23T12:58:27.612Z,8.80
2022-12-23T13:01:13.456Z,8.10
2022-12-23T13:04:13.889Z,7.80
2022-12-23T13:06:53.707Z,8.50
2022-12-23T13:09:31.493Z,8.63
2022-12-23T13:12:06.666Z,7.50
2022-12-23T13:14:48.238Z,8.88
2022-12-23T13:17:24.186Z,9.07
2022-12-23T13:19:57.155Z,7.50
2022-12-23T13:22:29.296Z,5.82
2022-12-23T13:25:05.012Z,7.18
2022-12-23T13:27:36.621Z,6.22
2022-12-23T13:30:12.195Z,6.78
2022-12-23T13:32:57.126Z,6.90
2022-12-23T13:35:36.585Z,6.10
2022-12-23T13:38:18.044Z,5.93
2022-12-23T13:40:57.834Z,6.10
2022-12-23T13:43:30.444Z,5.35
2022-12-23T13:46:03.097Z,4.60
2022-12-23T13:48:42.043Z,4.90
2022-12-23T13:51:16.821Z,5.55
2022-12-23T13:54:02.305Z,5.13
2022-12-23T13:56:43.468Z,4.97
2022-12-23T13:59:12.859Z,4.47
2022-12-23T14:01:47.078Z,4.70
2022-12-23T14:04:35.145Z,4.30
2022-12-23T14:07:20.018Z,3.80
2022-12-23T14:09:53.227Z,4.55
2022-12-23T14:12:27.888Z,4.88
2022-12-23T14:15:21.299Z,4.47
2022-12-23T14:18:02.543Z,5.55
2022-12-23T14:20:44.557Z,4.82
2022-12-23T14:23:29.541Z,5.07
2022-12-23T14:26:15.598Z,5.75
2022-12-23T14:29:05.751Z,5.88
2022-12-23T14:31:38.497Z,5.05
2022-12-23T14:34:25.562Z,6.65
2022-12-23T14:37:32.975Z,8.27
2022-12-23T14:40:39.450Z,8.05
2022-12-23T14:43:31.737Z,7.60
2022-12-23T14:46:04.867Z,6.95
2022-12-23T14:49:38.247Z,8.45
2022-12-23T14:52:44.043Z,9.82
2022-12-23T14:55:44.898Z,9.35
2022-12-23T14:58:51.170Z,7.30
2022-12-23T15:01:26.654Z,7.50
2022-12-23T15:04:01.351Z,7.82
2022-12-23T15:06:36.606Z,10.48
2022-12-23T15:09:07.447Z,10.57
2022-12-23T15:11:37.109Z,12.77
2022-12-23T15:14:10.289Z,12.15
2022-12-23T15:16:45.009Z,13.40
2022-12-23T15:19:22.303Z,15.52
2022-12-23T15:21:59.595Z,15.88
2022-12-23T15:24:33.387Z,18.63
2022-12-23T15:27:26.099Z,21.53
2022-12-23T15:29:52.455Z,22.40
2022-12-23T15:32:24.488Z,20.88
2022-12-23T15:34:53.707Z,20.60
2022-12-23T15:37:28.513Z,17.33
2022-12-23T15:40:06.235Z,15.35
2022-12-23T15:42:39.845Z,15.88
2022-12-23T15:45:32.242Z,15.80
2022-12-23T15:48:03.033Z,17.00
2022-12-23T15:50:31.878Z,17.65
2022-12-23T15:53:06.557Z,22.13
2022-12-23T15:55:37.501Z,16.75
2022-12-23T15:58:05.847Z,17.65
2022-12-23T16:00:40.738Z,18.00
2022-12-23T16:03:25.711Z,18.35
2022-12-23T16:05:54.322Z,18.25
2022-12-23T16:08:29.734Z,19.23
2022-12-23T16:11:04.349Z,20.60
2022-12-23T16:13:32.676Z,25.08
2022-12-23T16:16:19.118Z,23.77
2022-12-23T16:18:48.562Z,27.27
2022-12-23T16:21:16.695Z,33.55
2022-12-23T16:23:50.737Z,36.67
2022-12-23T16:26:18.919Z,37.22
2022-12-23T16:28:51.553Z,36.57
2022-12-23T16:31:21.439Z,37.78
2022-12-23T16:33:52.971Z,34.72
2022-12-23T16:36:33.364Z,36.15
2022-12-23T16:39:06.928Z,35.83
2022-12-23T16:41:35.134Z,39.53
2022-12-23T16:44:13.989Z,35.97
2022-12-23T16:46:50.965Z,32.35
2022-12-23T16:49:26.607Z,30.95
2022-12-23T16:51:58.032Z,32.42
2022-12-23T16:54:26.046Z,33.22
2022-12-23T16:56:53.934Z,38.28
2022-12-23T16:59:21.943Z,39.40
2022-12-23T17:01:50.645Z,32.75
2022-12-23T17:04:20.081Z,33.40
2022-12-23T17:06:48.498Z,31.60
2022-12-23T17:09:16.485Z,30.40
2022-12-23T17:11:46.392Z,30.33
2022-12-23T17:14:17.658Z,29.20
2022-12-23T17:16:46.291Z,28.70
2022-12-23T17:19:14.376Z,26.73
2022-12-23T17:21:45.615Z,24.73
2022-12-23T17:24:18.278Z,25.17
2022-12-23T17:26:46.305Z,26.70
2022-12-23T17:29:14.349Z,27.30
2022-12-23T17:31:44.204Z,28.88
2022-12-23T17:34:16.981Z,25.35
2022-12-23T17:36:50.351Z,25.88
2022-12-23T17:39:19.429Z,23.38
2022-12-23T17:41:47.818Z,24.23
2022-12-23T17:44:17.888Z,27.70
2022-12-23T17:46:47.014Z,30.10
2022-12-23T17:51:43.573Z,23.52
2022-12-23T17:54:21.878Z,23.17
2022-12-23T17:56:50.082Z,26.50
2022-12-23T17:59:18.042Z,24.27
2022-12-23T18:01:46.239Z,25.40
2022-12-23T18:04:14.210Z,29.80
2022-12-23T18:06:42.165Z,30.98
2022-12-23T18:09:10.126Z,29.20
2022-12-23T18:11:42.833Z,28.67
2022-12-23T18:14:16.264Z,28.27
2022-12-23T18:16:44.237Z,29.60
2022-12-23T18:19:18.269Z,30.92
2022-12-23T18:21:46.657Z,24.75
2022-12-23T18:24:14.740Z,24.25
2022-12-23T18:26:44.375Z,24.08
2022-12-23T18:29:12.605Z,25.73
2022-12-23T18:31:50.986Z,22.05
2022-12-23T18:34:20.393Z,23.95
2022-12-23T18:36:48.832Z,23.33
2022-12-23T18:39:16.958Z,25.17
2022-12-23T18:41:46.329Z,23.60
2022-12-23T18:44:19.327Z,25.65
2022-12-23T18:46:47.784Z,23.30
2022-12-23T18:49:15.710Z,22.42
2022-12-23T18:51:43.683Z,21.08
2022-12-23T18:54:14.827Z,22.48
2022-12-23T18:56:43.132Z,22.10
2022-12-23T18:59:16.824Z,22.67
2022-12-23T19:01:45.226Z,26.35
2022-12-23T19:04:13.905Z,28.88
2022-12-23T19:06:42.144Z,28.77
2022-12-23T19:09:16.926Z,28.60
2022-12-23T19:11:46.847Z,30.13
2022-12-23T19:14:16.650Z,25.60
2022-12-23T19:16:50.874Z,25.45
2022-12-23T19:19:19.821Z,23.40
2022-12-23T19:21:48.048Z,22.70
2022-12-23T19:24:15.952Z,23.87
2022-12-23T19:26:43.897Z,23.88
2022-12-23T19:29:11.883Z,25.85
2022-12-23T19:31:41.350Z,26.10
2022-12-23T19:34:14.610Z,26.15
2022-12-23T19:36:43.655Z,25.20
2022-12-23T19:39:16.392Z,26.20
2022-12-23T19:41:45.346Z,23.67
2022-12-23T19:44:13.351Z,23.15
2022-12-23T19:46:43.027Z,21.23
2022-12-23T19:49:17.581Z,21.58
2022-12-23T19:51:47.899Z,20.40
2022-12-23T19:54:15.975Z,21.50
2022-12-23T19:56:44.164Z,23.27
2022-12-23T19:59:12.370Z,24.03
2022-12-23T20:01:40.391Z,23.67
2022-12-23T20:04:11.087Z,23.75
2022-12-23T20:06:39.978Z,22.17
2022-12-23T20:09:09.316Z,21.20
2022-12-23T20:11:39.527Z,21.40
2022-12-23T20:14:08.362Z,19.10
2022-12-23T20:16:37.216Z,18.35
2022-12-23T20:19:05.799Z,17.88
2022-12-23T20:21:35.520Z,17.77
2022-12-23T20:24:03.525Z,15.88
2022-12-23T20:26:31.778Z,18.33
2022-12-23T20:29:00.040Z,15.60
2022-12-23T20:31:30.100Z,15.03
2022-12-23T20:33:58.484Z,13.98
2022-12-23T20:36:28.771Z,14.90
2022-12-23T20:38:58.439Z,14.30
2022-12-23T20:41:27.883Z,13.77
2022-12-23T20:44:32.534Z,13.43
2022-12-23T20:46:44.167Z,13.23
2022-12-23T20:49:12.368Z,14.75
2022-12-23T20:51:40.357Z,13.27
2022-12-23T20:54:09.886Z,12.25
2022-12-23T20:56:37.839Z,12.15
2022-12-23T20:59:05.818Z,12.85
2022-12-23T21:01:36.232Z,14.00
2022-12-23T21:04:07.294Z,12.73
2022-12-23T21:06:36.362Z,12.55
2022-12-23T21:14:07.113Z,12.45
2022-12-23T21:16:36.851Z,11.45
2022-12-23T21:19:05.972Z,11.32
2022-12-23T21:21:34.081Z,12.63
2022-12-23T21:24:04.804Z,12.45
2022-12-23T21:26:35.774Z,12.65
2022-12-23T21:29:06.756Z,14.23
2022-12-23T21:31:37.214Z,12.40
2022-12-23T21:34:05.794Z,13.48
2022-12-23T21:36:35.851Z,13.32
2022-12-23T21:39:05.796Z,14.52
2022-12-23T21:41:38.377Z,12.50
2022-12-23T21:44:06.967Z,12.60
2022-12-23T21:46:35.542Z,11.95
2022-12-23T21:49:04.385Z,11.73
2022-12-23T21:51:40.302Z,10.57
2022-12-23T21:54:10.769Z,11.27
2022-12-23T21:56:41.431Z,10.77
2022-12-23T21:59:12.365Z,12.25
2022-12-23T22:01:40.770Z,11.90
2022-12-23T22:04:08.806Z,12.50
2022-12-23T22:06:43.565Z,12.77
2022-12-23T22:09:13.816Z,14.70
2022-12-23T22:11:43.489Z,18.45
2022-12-23T22:14:13.983Z,15.95
2022-12-23T22:16:42.189Z,15.02
2022-12-23T22:19:11.896Z,18.17
2022-12-23T22:21:40.305Z,24.83
2022-12-23T22:24:08.634Z,29.02
2022-12-23T22:26:37.247Z,33.10
2022-12-23T22:29:07.566Z,40.00
2022-12-23T22:31:39.898Z,45.13
2022-12-23T22:34:09.337Z,51.28
2022-12-23T22:36:37.542Z,57.25
2022-12-23T22:39:07.750Z,72.47
2022-12-23T22:41:36.404Z,80.40
2022-12-23T22:44:04.982Z,83.00
2022-12-23T22:46:34.715Z,79.40
2022-12-23T22:49:02.778Z,79.38
2022-12-23T22:51:31.989Z,73.68
2022-12-23T22:54:00.455Z,75.22
2022-12-23T22:56:28.745Z,76.30
2022-12-23T22:58:56.938Z,67.97
2022-12-23T23:01:27.071Z,59.55
2022-12-23T23:03:58.295Z,60.28
2022-12-23T23:06:28.335Z,59.95
2022-12-23T23:08:57.006Z,59.33
2022-12-23T23:11:25.945Z,59.35
2022-12-23T23:13:54.380Z,60.45
2022-12-23T23:16:22.880Z,59.78
2022-12-23T23:18:50.918Z,59.67
2022-12-23T23:21:20.645Z,61.72
2022-12-23T23:23:48.603Z,59.53
2022-12-23T23:26:17.298Z,58.33
2022-12-23T23:28:45.615Z,58.63
2022-12-23T23:34:02.015Z,62.28
2022-12-23T23:36:31.798Z,62.67
2022-12-23T23:38:59.764Z,63.72
2022-12-23T23:41:27.776Z,62.75
2022-12-23T23:43:55.784Z,66.25
2022-12-23T23:46:23.779Z,63.10
2022-12-23T23:48:51.806Z,62.97
2022-12-23T23:51:19.777Z,63.40
2022-12-23T23:53:49.804Z,64.32
2022-12-23T23:56:23.818Z,64.60
2022-12-23T23:58:52.961Z,62.40
